Time;durP1;ratioP1;P1;durP2;ratioP2;P2;SDS_P1;SDS_P2;PMS_P1;PMS_P2;Temp;Humidity;BMP_temperature;BMP_pressure;BME280_temperature;BME280_humidity;BME280_pressure;Samples;Min_cycle;Max_cycle;Signal;HPM_P1;HPM_P2
2022/11/07 00:00:05;;;;;;;71.43;33.90;;;;;;;7.56;100.00;98948.84;2291168;78;21232;-83
2022/11/07 00:03:05;;;;;;;67.77;32.07;;;;;;;7.59;100.00;98938.52;2290930;78;21302;-83
2022/11/07 00:06:05;;;;;;;57.80;30.80;;;;;;;7.61;100.00;98940.31;2290755;78;20947;-82
2022/11/07 00:09:06;;;;;;;71.50;32.70;;;;;;;7.64;100.00;98931.72;2290900;78;20911;-83
2022/11/07 00:12:06;;;;;;;62.17;32.23;;;;;;;7.72;100.00;98939.70;2290948;78;20936;-82
2022/11/07 00:15:07;;;;;;;61.83;31.60;;;;;;;7.74;100.00;98938.02;2291084;78;20952;-82
2022/11/07 00:18:07;;;;;;;63.73;32.93;;;;;;;7.76;100.00;98935.04;2290990;78;21309;-82
2022/11/07 00:21:07;;;;;;;59.70;30.70;;;;;;;7.79;100.00;98939.89;2291508;77;20932;-82
2022/11/07 00:24:08;;;;;;;64.47;31.60;;;;;;;7.82;100.00;98943.02;2292681;77;21279;-82
2022/11/07 00:27:08;;;;;;;57.83;31.43;;;;;;;7.85;100.00;98937.89;2290917;78;21014;-83
2022/11/07 00:30:09;;;;;;;63.33;29.57;;;;;;;7.88;100.00;98930.17;2291028;78;20928;-82
2022/11/07 00:33:09;;;;;;;57.10;29.80;;;;;;;7.89;100.00;98923.70;2291167;78;20940;-82
2022/11/07 00:36:09;;;;;;;65.33;31.73;;;;;;;7.89;100.00;98920.23;2290891;78;20900;-82
2022/11/07 00:39:10;;;;;;;53.17;29.33;;;;;;;7.91;100.00;98923.74;2291232;78;20967;-81
2022/11/07 00:42:10;;;;;;;57.93;28.37;;;;;;;7.93;100.00;98919.45;2291278;78;20958;-83
2022/11/07 00:45:12;;;;;;;61.17;29.97;;;;;;;7.94;100.00;98916.02;2291018;78;20928;-82
2022/11/07 00:48:11;;;;;;;56.17;27.23;;;;;;;7.95;100.00;98919.08;2291141;78;20920;-83
2022/11/07 00:51:11;;;;;;;48.40;28.30;;;;;;;7.96;100.00;98919.11;2290484;78;20995;-82
2022/11/07 00:54:12;;;;;;;60.17;29.47;;;;;;;7.98;100.00;98931.72;2281271;78;20887;-82
2022/11/07 00:57:12;;;;;;;63.53;30.50;;;;;;;8.02;100.00;98933.97;2281315;78;21302;-83
2022/11/07 01:00:13;;;;;;;55.30;28.10;;;;;;;8.05;100.00;98939.24;2281279;78;20887;-81
2022/11/07 01:06:32;;;;;;;54.33;27.00;;;;;;;8.12;100.00;98933.34;2281317;78;20926;-82
2022/11/07 01:09:32;;;;;;;42.13;25.10;;;;;;;8.15;100.00;98929.51;2281204;78;20969;-83
2022/11/07 01:12:33;;;;;;;45.97;27.03;;;;;;;8.17;100.00;98923.92;2281241;78;20911;-82
2022/11/07 01:15:33;;;;;;;56.80;33.00;;;;;;;8.18;100.00;98919.17;2281344;78;20954;-82
2022/11/07 01:18:33;;;;;;;47.53;28.10;;;;;;;8.20;100.00;98910.98;2281515;78;20911;-82
2022/11/07 01:21:34;;;;;;;47.90;27.10;;;;;;;8.22;100.00;98921.42;2277532;78;21335;-82
2022/11/07 01:24:34;;;;;;;46.80;26.10;;;;;;;8.21;100.00;98916.64;2276698;78;20974;-83
2022/11/07 01:27:36;;;;;;;52.33;27.23;;;;;;;8.22;100.00;98921.42;2281541;78;20974;-82
2022/11/07 01:30:36;;;;;;;44.83;25.77;;;;;;;8.23;100.00;98914.95;2281198;78;20984;-82
2022/11/07 01:33:36;;;;;;;47.50;27.17;;;;;;;8.24;100.00;98914.11;2280793;78;20957;-81
2022/11/07 01:36:37;;;;;;;45.57;25.10;;;;;;;8.24;100.00;98908.91;2281144;78;20969;-81
2022/11/07 01:39:37;;;;;;;48.87;27.97;;;;;;;8.25;100.00;98906.77;2281055;78;20938;-82
2022/11/07 01:42:38;;;;;;;44.47;26.03;;;;;;;8.25;100.00;98900.27;2281133;78;21279;-82
2022/11/07 01:45:38;;;;;;;41.73;25.80;;;;;;;8.26;100.00;98894.22;2280043;78;20914;-81
2022/11/07 01:48:39;;;;;;;49.93;26.23;;;;;;;8.26;100.00;98890.31;2280145;78;20910;-82
2022/11/07 01:51:39;;;;;;;41.60;24.63;;;;;;;8.28;100.00;98889.92;2280214;78;20961;-82
2022/11/07 01:54:39;;;;;;;43.30;26.47;;;;;;;8.30;100.00;98882.16;2280638;78;21002;-82
2022/11/07 01:57:40;;;;;;;48.73;28.07;;;;;;;8.32;100.00;98879.16;2280411;78;20945;-82
2022/11/07 02:00:40;;;;;;;39.77;26.03;;;;;;;8.33;100.00;98870.55;2280821;78;20895;-81
2022/11/07 02:03:41;;;;;;;43.73;25.90;;;;;;;8.35;100.00;98860.18;2280520;78;21306;-82
2022/11/07 02:06:41;;;;;;;45.53;27.17;;;;;;;8.35;100.00;98854.56;2280948;78;20903;-81
2022/11/07 02:09:41;;;;;;;46.70;25.63;;;;;;;8.35;100.00;98856.28;2280748;78;20938;-82
2022/11/07 02:12:42;;;;;;;49.33;26.87;;;;;;;8.35;100.00;98854.98;2281279;78;20926;-82
2022/11/07 02:15:42;;;;;;;52.70;28.27;;;;;;;8.36;100.00;98848.94;2281176;78;20973;-82
2022/11/07 02:18:43;;;;;;;49.13;29.13;;;;;;;8.36;100.00;98850.23;2280255;78;21320;-82
2022/11/07 02:21:43;;;;;;;49.00;26.80;;;;;;;8.36;100.00;98849.81;2280063;78;20938;-82
2022/11/07 02:24:43;;;;;;;43.77;27.97;;;;;;;8.36;100.00;98849.81;2281183;78;21398;-82
2022/11/07 02:27:44;;;;;;;45.53;27.60;;;;;;;8.35;100.00;98848.48;2280672;78;20918;-82
2022/11/07 02:30:44;;;;;;;44.43;27.10;;;;;;;8.37;100.00;98845.48;2280218;78;20959;-81
2022/11/07 02:33:45;;;;;;;43.63;26.20;;;;;;;8.37;100.00;98840.28;2280917;78;20914;-83
2022/11/07 02:36:45;;;;;;;43.83;26.27;;;;;;;8.38;100.00;98840.73;2281301;78;20930;-82
2022/11/07 02:39:45;;;;;;;43.07;26.10;;;;;;;8.37;100.00;98838.56;2281174;78;21319;-82
2022/11/07 02:42:46;;;;;;;42.93;26.67;;;;;;;8.38;100.00;98842.04;2281353;78;20875;-82
2022/11/07 02:45:46;;;;;;;41.67;26.63;;;;;;;8.37;100.00;98833.78;2281602;78;20902;-82
2022/11/07 02:48:47;;;;;;;41.70;25.07;;;;;;;8.39;100.00;98829.48;2281293;78;21334;-82
2022/11/07 02:51:47;;;;;;;42.60;26.63;;;;;;;8.36;100.00;98822.50;2280893;78;20934;-82
2022/11/07 02:54:47;;;;;;;40.07;26.67;;;;;;;8.36;100.00;98826.83;2281366;78;20950;-82
2022/11/07 02:57:48;;;;;;;38.93;25.40;;;;;;;8.37;100.00;98824.68;2281376;78;21346;-83
2022/11/07 03:00:48;;;;;;;43.57;26.07;;;;;;;8.38;100.00;98822.53;2281342;78;20944;-82
2022/11/07 03:03:49;;;;;;;38.67;25.80;;;;;;;8.37;100.00;98819.47;2281518;78;20958;-84
2022/11/07 03:06:49;;;;;;;38.80;23.63;;;;;;;8.36;100.00;98819.02;2281489;78;20914;-83
2022/11/07 03:09:50;;;;;;;40.57;25.23;;;;;;;8.37;100.00;98818.17;2281528;78;21292;-83
2022/11/07 03:12:50;;;;;;;43.90;26.17;;;;;;;8.37;100.00;98816.45;2281307;78;21247;-84
2022/11/07 03:15:50;;;;;;;41.53;25.37;;;;;;;8.37;100.00;98819.05;2281377;78;20962;-83
2022/11/07 03:18:51;;;;;;;37.20;23.40;;;;;;;8.37;100.00;98820.78;2281292;78;20942;-82
2022/11/07 03:21:51;;;;;;;39.47;23.43;;;;;;;8.36;100.00;98813.82;2281511;78;20883;-83
2022/11/07 03:24:52;;;;;;;;;;;;;;;;;;;;;
2022/11/07 03:27:52;;;;;;;37.53;22.73;;;;;;;8.34;100.00;98815.09;2281265;78;21390;-82
2022/11/07 03:30:55;;;;;;;38.90;23.63;;;;;;;8.35;100.00;98815.97;2281268;78;21010;-83
2022/11/07 03:33:55;;;;;;;44.40;28.50;;;;;;;8.33;100.00;98820.23;2281160;78;21346;-82
2022/11/07 03:36:56;;;;;;;37.20;23.77;;;;;;;8.35;100.00;98819.87;2281187;78;20953;-81
2022/11/07 03:39:56;;;;;;;44.53;23.83;;;;;;;8.36;100.00;98819.02;2280842;78;20950;-82
2022/11/07 03:42:56;;;;;;;42.33;25.83;;;;;;;8.36;100.00;98824.22;2279756;78;20914;-82
2022/11/07 03:45:57;;;;;;;40.37;24.97;;;;;;;8.34;100.00;98821.59;2280302;78;21013;-81
2022/11/07 03:48:57;;;;;;;47.77;26.97;;;;;;;8.35;100.00;98821.17;2280304;78;20980;-81
2022/11/07 03:52:00;;;;;;;48.87;26.60;;;;;;;8.37;100.00;98825.98;2280502;77;21365;-81
2022/11/07 03:55:01;;;;;;;44.80;26.77;;;;;;;8.38;100.00;98828.61;2290172;78;20915;-82
2022/11/07 03:58:01;;;;;;;46.37;28.63;;;;;;;8.38;100.00;98823.83;2290006;78;20979;-82
2022/11/07 04:01:02;;;;;;;44.90;27.43;;;;;;;8.41;100.00;98829.09;2290076;78;21358;-82
2022/11/07 04:04:02;;;;;;;48.70;29.53;;;;;;;8.40;100.00;98823.44;2290029;78;20924;-82
2022/11/07 04:07:03;;;;;;;51.37;29.27;;;;;;;8.41;100.00;98827.80;2290794;78;20971;-82
2022/11/07 04:10:05;;;;;;;51.17;29.27;;;;;;;8.43;100.00;98824.80;2290933;78;20987;-82
2022/11/07 04:19:43;;;;;;;49.30;30.40;;;;;;;8.47;100.00;98818.81;2291159;77;20960;-81
2022/11/07 04:22:43;;;;;;;49.50;29.83;;;;;;;8.45;100.00;98812.28;2290721;78;21030;-82
2022/11/07 04:29:02;;;;;;;51.83;27.53;;;;;;;8.51;100.00;98815.42;2290943;77;20980;-82
2022/11/07 04:32:03;;;;;;;49.67;29.90;;;;;;;8.53;100.00;98809.41;2290562;78;21023;-82
2022/11/07 04:35:03;;;;;;;49.10;28.40;;;;;;;8.52;100.00;98800.27;2290685;78;20982;-81
2022/11/07 04:38:04;;;;;;;44.87;27.40;;;;;;;8.53;100.00;98798.12;2291018;78;20936;-82
2022/11/07 04:41:04;;;;;;;46.40;29.53;;;;;;;8.52;100.00;98794.64;2290882;78;20948;-83
2022/11/07 04:44:05;;;;;;;44.63;27.03;;;;;;;8.53;100.00;98789.02;2290279;78;20975;-81
2022/11/07 04:47:05;;;;;;;44.33;28.00;;;;;;;8.52;100.00;98780.33;2290258;78;21014;-83
2022/11/07 04:50:05;;;;;;;48.00;28.87;;;;;;;8.55;100.00;98779.09;2289815;78;20971;-83
2022/11/07 04:53:06;;;;;;;53.63;28.90;;;;;;;8.55;100.00;98779.52;2286260;78;21033;-83
2022/11/07 04:56:06;;;;;;;46.27;29.03;;;;;;;8.52;100.00;98779.03;2280259;78;21013;-82
2022/11/07 04:59:07;;;;;;;45.63;27.73;;;;;;;8.51;100.00;98769.90;2279809;78;20969;-82
2022/11/07 05:02:07;;;;;;;43.50;28.10;;;;;;;8.50;100.00;98776.83;2279599;78;20896;-82
2022/11/07 05:05:07;;;;;;;52.67;28.60;;;;;;;8.50;100.00;98774.22;2279785;78;20918;-83
2022/11/07 05:08:08;;;;;;;44.07;28.07;;;;;;;8.50;100.00;98775.95;2279050;78;20991;-82
2022/11/07 05:11:08;;;;;;;45.47;27.97;;;;;;;8.51;100.00;98775.09;2279192;78;20950;-83
2022/11/07 05:14:09;;;;;;;42.60;27.63;;;;;;;8.49;100.00;98780.27;2278817;78;20925;-82
2022/11/07 05:17:09;;;;;;;41.63;25.80;;;;;;;8.51;100.00;98779.00;2279229;78;20934;-82
2022/11/07 05:20:10;;;;;;;42.27;27.17;;;;;;;8.51;100.00;98778.58;2279806;78;20941;-84
2022/11/07 05:23:20;;;;;;;43.70;27.27;;;;;;;8.54;100.00;98779.06;2279650;78;20973;-82
2022/11/07 05:26:17;;;;;;;42.80;26.93;;;;;;;8.56;100.00;98778.66;2279088;78;20906;-82
2022/11/07 05:29:17;;;;;;;46.30;27.47;;;;;;;8.55;100.00;98775.61;2279331;78;20949;-82
2022/11/07 05:32:17;;;;;;;43.33;26.60;;;;;;;8.54;100.00;98772.55;2279104;78;20938;-82
2022/11/07 05:35:18;;;;;;;41.37;25.97;;;;;;;8.55;100.00;98780.39;2279464;78;20911;-83
2022/11/07 05:38:18;;;;;;;44.53;26.80;;;;;;;8.55;100.00;98777.79;2279957;78;20949;-82
2022/11/07 05:41:19;;;;;;;40.70;26.40;;;;;;;8.58;100.00;98782.17;2279656;78;20946;-83
2022/11/07 05:44:19;;;;;;;49.93;29.53;;;;;;;8.57;100.00;98785.62;2278800;78;20886;-80
2022/11/07 05:47:19;;;;;;;47.13;27.60;;;;;;;8.57;100.00;98785.62;2278241;78;20964;-84
2022/11/07 05:50:20;;;;;;;41.03;26.97;;;;;;;8.63;100.00;98788.34;2278385;78;20953;-82
2022/11/07 05:53:20;;;;;;;42.00;26.20;;;;;;;8.64;100.00;98793.99;2267105;77;20984;-84
2022/11/07 05:56:21;;;;;;;40.97;27.07;;;;;;;8.68;100.00;98796.27;2245792;79;20924;-83
2022/11/07 05:59:21;;;;;;;47.13;25.83;;;;;;;8.70;100.00;98794.56;2245850;79;20943;-83
2022/11/07 06:02:21;;;;;;;43.33;27.53;;;;;;;8.71;100.00;98802.40;2246204;79;20967;-86
2022/11/07 06:05:22;;;;;;;45.90;25.73;;;;;;;8.72;100.00;98804.16;2245958;79;20920;-84
2022/11/07 06:08:22;;;;;;;45.67;27.90;;;;;;;8.76;100.00;98807.69;2245897;79;20932;-83
2022/11/07 06:11:23;;;;;;;36.70;25.60;;;;;;;8.78;100.00;98807.29;2245749;79;21006;-83
2022/11/07 06:14:23;;;;;;;39.90;28.03;;;;;;;8.78;100.00;98809.47;2245932;79;20964;-83
2022/11/07 06:17:24;;;;;;;40.97;26.53;;;;;;;8.78;100.00;98813.38;2246396;79;20979;-82
2022/11/07 06:20:28;;;;;;;39.30;26.27;;;;;;;8.80;100.00;98816.00;2246914;79;21256;-83
2022/11/07 06:23:31;;;;;;;40.50;26.73;;;;;;;8.85;100.00;98827.37;2246481;79;20972;-83
2022/11/07 06:26:34;;;;;;;41.33;27.33;;;;;;;8.84;100.00;98829.10;2223983;79;20932;-83
2022/11/07 06:29:34;;;;;;;40.40;26.20;;;;;;;8.86;100.00;98840.42;2246222;79;20999;-83
2022/11/07 06:32:35;;;;;;;37.10;25.73;;;;;;;8.87;100.00;98842.59;2246007;79;20936;-83
2022/11/07 06:35:35;;;;;;;40.83;27.77;;;;;;;8.89;100.00;98850.89;2246602;79;20919;-82
2022/11/07 06:38:36;;;;;;;39.63;27.20;;;;;;;8.91;100.00;98866.11;2246863;79;20904;-82
2022/11/07 06:41:36;;;;;;;49.03;28.63;;;;;;;8.92;100.00;98863.08;2245746;79;21244;-83
2022/11/07 06:44:37;;;;;;;45.67;30.10;;;;;;;9.00;100.00;98868.43;2245305;79;20904;-82
2022/11/07 06:47:37;;;;;;;52.93;31.67;;;;;;;9.10;100.00;98869.92;2246709;79;20926;-83
2022/11/07 06:50:37;;;;;;;46.13;30.07;;;;;;;9.15;100.00;98873.48;2245109;79;21429;-81
2022/11/07 06:53:41;;;;;;;55.07;31.27;;;;;;;9.23;100.00;98871.02;2259523;77;21059;-81
2022/11/07 06:56:41;;;;;;;39.80;27.47;;;;;;;9.49;100.00;98865.83;2288464;78;20888;-81
2022/11/07 06:59:41;;;;;;;49.27;28.73;;;;;;;9.63;100.00;98875.63;2288254;78;20959;-81
2022/11/07 07:02:42;;;;;;;45.10;27.00;;;;;;;9.59;100.00;98877.31;2287276;78;21367;-78
2022/11/07 07:05:42;;;;;;;39.80;25.93;;;;;;;9.57;100.00;98867.28;2287810;78;20971;-77
2022/11/07 07:08:42;;;;;;;40.47;27.27;;;;;;;9.53;100.00;98866.33;2287808;78;20920;-81
2022/11/07 07:11:44;;;;;;;54.03;31.17;;;;;;;9.83;100.00;98872.91;2288629;78;21657;-81
2022/11/07 07:14:43;;;;;;;97.57;31.60;;;;;;;9.83;100.00;98872.91;2288617;78;21316;-82
2022/11/07 07:17:44;;;;;;;43.63;26.97;;;;;;;10.28;100.00;98877.05;2289059;78;20931;-81
2022/11/07 07:20:44;;;;;;;41.07;25.60;;;;;;;10.23;100.00;98872.20;2288182;78;20968;-82
2022/11/07 07:23:45;;;;;;;42.53;26.07;;;;;;;10.18;99.70;98870.80;2288248;78;21395;-81
2022/11/07 07:26:45;;;;;;;42.05;27.67;;;;;;;10.14;99.37;98873.80;2287996;78;20920;-81
2022/11/07 07:29:45;;;;;;;58.63;28.20;;;;;;;10.13;99.26;98876.38;2289006;78;20920;-81
2022/11/07 07:32:46;;;;;;;36.73;26.57;;;;;;;10.14;99.10;98869.01;2286824;78;20976;-81
2022/11/07 07:35:46;;;;;;;46.42;25.57;;;;;;;10.13;98.74;98865.95;2287041;78;20920;-82
2022/11/07 07:38:47;;;;;;;36.55;24.70;;;;;;;10.15;98.56;98869.45;2288248;78;20951;-81
2022/11/07 07:41:48;;;;;;;39.67;25.10;;;;;;;10.17;98.63;98866.02;2288532;78;21379;-81
2022/11/07 07:44:47;;;;;;;39.83;24.87;;;;;;;10.23;98.42;98866.98;2287787;78;20916;-82
2022/11/07 07:47:48;;;;;;;44.18;26.60;;;;;;;10.30;98.00;98871.43;2288575;78;21328;-82
2022/11/07 07:50:48;;;;;;;45.67;30.23;;;;;;;10.38;97.91;98864.15;2287773;78;20967;-82
2022/11/07 07:53:49;;;;;;;47.75;33.78;;;;;;;10.46;97.39;98864.28;2287059;78;20956;-81
2022/11/07 07:56:49;;;;;;;48.08;32.45;;;;;;;10.55;97.24;98866.13;2287991;78;20896;-81
2022/11/07 07:59:49;;;;;;;48.08;30.50;;;;;;;10.67;97.08;98875.41;2287787;78;21306;-80
2022/11/07 08:02:50;;;;;;;43.17;30.20;;;;;;;10.81;96.42;98874.71;2287346;78;20977;-80
2022/11/07 08:05:50;;;;;;;46.50;29.10;;;;;;;10.91;95.78;98873.50;2287455;78;20956;-79
2022/11/07 08:08:51;;;;;;;34.05;24.57;;;;;;;10.97;95.70;98868.34;2288159;78;20924;-81
2022/11/07 08:11:51;;;;;;;41.10;27.15;;;;;;;11.00;94.87;98870.99;2287651;78;20944;-81
2022/11/07 08:14:52;;;;;;;33.00;22.70;;;;;;;11.01;94.73;98873.62;2288040;78;21383;-82
2022/11/07 08:17:52;;;;;;;48.92;22.48;;;;;;;11.05;94.03;98874.53;2287897;78;20916;-81
2022/11/07 08:20:52;;;;;;;32.53;21.48;;;;;;;11.09;93.56;98875.00;2287984;78;20947;-82
2022/11/07 08:23:53;;;;;;;31.20;20.05;;;;;;;11.14;93.03;98874.19;2287505;78;20983;-78
2022/11/07 08:26:53;;;;;;;32.33;20.48;;;;;;;11.27;92.54;98873.91;2289479;78;20920;-78
2022/11/07 08:29:54;;;;;;;32.55;18.32;;;;;;;11.43;91.83;98870.58;2288648;78;20920;-81
2022/11/07 08:32:55;;;;;;;29.48;20.77;;;;;;;11.57;90.06;98875.05;2288605;78;20915;-81
2022/11/07 08:35:55;;;;;;;30.77;21.25;;;;;;;11.69;89.95;98863.38;2288433;78;20955;-82
2022/11/07 08:38:55;;;;;;;29.40;17.77;;;;;;;11.99;88.03;98866.67;2288059;78;21340;-83
2022/11/07 08:41:55;;;;;;;27.22;17.23;;;;;;;12.00;87.62;98866.69;2288108;78;20924;-81
2022/11/07 08:44:56;;;;;;;25.20;18.77;;;;;;;12.02;85.59;98864.95;2288442;78;20924;-83
2022/11/07 08:47:56;;;;;;;26.95;17.60;;;;;;;12.03;86.59;98871.06;2288270;78;21633;-84
2022/11/07 08:50:57;;;;;;;27.30;17.62;;;;;;;12.13;85.91;98871.13;2287927;78;20960;-82
2022/11/07 08:53:57;;;;;;;28.05;17.87;;;;;;;12.18;85.16;98872.92;2286570;77;21393;-81
2022/11/07 08:56:57;;;;;;;35.23;17.12;;;;;;;12.18;85.46;98878.16;2278836;78;20933;-81
2022/11/07 08:59:58;;;;;;;23.65;15.63;;;;;;;12.20;84.65;98877.30;2278379;78;20958;-81
2022/11/07 09:02:58;;;;;;;21.40;15.13;;;;;;;12.18;83.70;98875.55;2278128;78;21600;-82
2022/11/07 09:05:59;;;;;;;25.52;16.07;;;;;;;12.17;80.93;98881.64;2277553;78;21305;-79
2022/11/07 09:08:59;;;;;;;24.30;15.78;;;;;;;12.25;83.16;98882.13;2276880;78;20922;-84
2022/11/07 09:11:59;;;;;;;24.85;17.15;;;;;;;12.34;84.58;98877.38;2277662;78;20910;-83
2022/11/07 09:15:00;;;;;;;23.30;15.55;;;;;;;12.77;81.62;98884.98;2277736;78;20910;-83
2022/11/07 09:18:00;;;;;;;25.45;16.42;;;;;;;12.72;79.89;98885.41;2277678;78;21994;-83
2022/11/07 09:21:01;;;;;;;20.52;13.72;;;;;;;12.66;79.94;98884.95;2277749;78;20922;-82
2022/11/07 09:24:01;;;;;;;21.95;14.95;;;;;;;12.64;77.72;98886.69;2277886;78;21039;-81
2022/11/07 09:27:02;;;;;;;21.85;13.53;;;;;;;12.56;79.70;98879.66;2278036;78;20910;-81
2022/11/07 09:30:02;;;;;;;19.48;12.95;;;;;;;12.64;77.56;98880.58;2277779;78;21687;-85
2022/11/07 09:33:02;;;;;;;21.27;12.75;;;;;;;12.60;79.67;98875.76;2277968;78;20950;-83
2022/11/07 09:36:03;;;;;;;21.10;12.28;;;;;;;12.76;77.52;98867.09;2278244;78;20976;-82
2022/11/07 09:39:06;;;;;;;16.27;10.53;;;;;;;12.68;74.73;98870.55;2278971;78;21543;-82
2022/11/07 09:42:06;;;;;;;14.23;10.40;;;;;;;12.61;76.22;98869.66;2258183;78;20922;-81
2022/11/07 09:45:06;;;;;;;12.73;8.35;;;;;;;12.57;75.07;98875.74;2278510;78;20918;-80
2022/11/07 09:48:06;;;;;;;16.97;8.65;;;;;;;12.48;74.42;98872.21;2278499;77;20965;-80
2022/11/07 09:51:07;;;;;;;15.45;8.10;;;;;;;12.50;75.29;98876.59;2279335;77;21617;-81
2022/11/07 09:54:07;;;;;;;15.28;8.35;;;;;;;12.44;72.70;98873.50;2270952;78;21700;-79
2022/11/07 09:57:08;;;;;;;15.93;7.78;;;;;;;12.35;74.19;98869.97;2247110;79;20920;-80
2022/11/07 10:00:10;;;;;;;11.18;7.53;;;;;;;12.35;73.79;98866.92;2246264;78;20955;-82
2022/11/07 10:03:08;;;;;;;12.28;8.48;;;;;;;12.37;73.02;98866.92;2246849;78;20955;-82
2022/11/07 10:06:10;;;;;;;10.38;8.45;;;;;;;12.38;74.09;98873.91;2245870;79;21391;-82
2022/11/07 10:09:10;;;;;;;12.15;8.38;;;;;;;12.42;72.41;98874.36;2246087;79;20888;-81
2022/11/07 10:12:10;;;;;;;10.82;8.83;;;;;;;12.41;72.65;98877.85;2245486;78;20979;-81
2022/11/07 10:15:10;;;;;;;17.05;9.13;;;;;;;12.41;73.15;98879.16;2245968;78;21364;-77
2022/11/07 10:18:10;;;;;;;15.20;8.63;;;;;;;12.44;73.85;98867.39;2245453;78;20888;-81
2022/11/07 10:21:11;;;;;;;28.42;9.93;;;;;;;12.43;73.57;98878.73;2246250;78;20920;-82
2022/11/07 10:24:11;;;;;;;18.75;9.05;;;;;;;12.29;71.51;98883.90;2246659;78;20979;-80
2022/11/07 10:27:12;;;;;;;15.00;9.93;;;;;;;12.19;72.45;98876.86;2246163;78;20908;-83
2022/11/07 10:30:12;;;;;;;19.87;8.80;;;;;;;12.12;72.44;98868.06;2246625;78;20935;-81
2022/11/07 10:33:12;;;;;;;14.90;8.63;;;;;;;12.15;72.99;98870.30;2246147;79;20916;-84
2022/11/07 10:36:13;;;;;;;19.57;9.88;;;;;;;12.13;73.12;98872.86;2246551;78;20920;-79
2022/11/07 10:39:13;;;;;;;18.17;8.73;;;;;;;12.15;73.62;98874.22;2246114;78;20912;-80
2022/11/07 10:42:14;;;;;;;21.12;8.88;;;;;;;12.20;71.76;98877.73;2247439;78;20916;-81
2022/11/07 10:45:14;;;;;;;22.50;9.75;;;;;;;12.15;71.26;98875.53;2246439;78;20920;-82
2022/11/07 10:48:15;;;;;;;22.67;8.88;;;;;;;12.08;71.12;98871.53;2245995;78;20884;-80
2022/11/07 10:54:31;;;;;;;14.13;8.48;;;;;;;12.13;71.03;98879.41;2259521;79;22875;-82
2022/11/07 10:57:34;;;;;;;14.55;10.55;;;;;;;12.09;70.11;98875.02;2226963;80;21387;-82
2022/11/07 11:00:32;;;;;;;34.65;10.82;;;;;;;12.10;69.95;98880.27;2226507;80;20960;-83
2022/11/07 11:03:32;;;;;;;14.13;8.70;;;;;;;12.12;69.91;98882.45;2226727;80;20935;-82
2022/11/07 11:06:33;;;;;;;17.77;8.55;;;;;;;12.13;71.20;98875.05;2226408;80;20947;-82
2022/11/07 11:09:33;;;;;;;25.82;9.80;;;;;;;12.27;72.11;98874.29;2226183;80;20951;-81
2022/11/07 11:12:34;;;;;;;23.42;9.80;;;;;;;12.31;70.42;98881.29;2225562;80;21440;-80
2022/11/07 11:15:34;;;;;;;29.32;10.18;;;;;;;12.21;70.75;98879.48;2226472;80;21213;-82
2022/11/07 11:18:34;;;;;;;19.75;9.60;;;;;;;12.14;71.26;98882.50;2226423;80;21340;-80
2022/11/07 11:21:35;;;;;;;14.20;8.13;;;;;;;12.16;72.21;98879.89;2226180;80;21634;-80
2022/11/07 11:24:38;;;;;;;13.18;7.28;;;;;;;12.22;69.95;98882.11;2225690;80;20995;-81
2022/11/07 11:27:39;;;;;;;23.90;8.53;;;;;;;12.15;69.55;98885.99;2225999;80;21003;-81
2022/11/07 11:30:39;;;;;;;10.72;7.25;;;;;;;12.01;69.19;98889.36;2225465;80;21279;-81
2022/11/07 11:33:44;;;;;;;15.30;7.85;;;;;;;11.88;69.60;98883.60;2225867;80;20998;-81
2022/11/07 11:36:42;;;;;;;22.60;8.65;;;;;;;11.86;70.04;98883.15;2209145;80;20964;-80
2022/11/07 11:39:42;;;;;;;17.23;8.50;;;;;;;11.92;69.66;98886.68;2225409;80;21441;-80
2022/11/07 11:42:43;;;;;;;12.23;8.23;;;;;;;11.98;71.35;98882.80;2225481;80;20987;-80
2022/11/07 11:45:43;;;;;;;16.30;8.60;;;;;;;12.16;71.01;98888.62;2225800;80;21007;-82
2022/11/07 11:48:44;;;;;;;11.75;7.28;;;;;;;12.32;70.47;98884.34;2225820;80;21007;-80
2022/11/07 11:51:44;;;;;;;12.15;6.97;;;;;;;12.35;69.74;98877.82;2226321;80;21423;-82
2022/11/07 11:54:44;;;;;;;12.43;7.62;;;;;;;12.32;69.62;98879.11;2209013;80;20981;-82
2022/11/07 11:57:45;;;;;;;17.25;7.42;;;;;;;12.35;70.45;98881.75;2208821;81;20968;-80
2022/11/07 12:00:45;;;;;;;33.60;8.63;;;;;;;12.36;69.36;98881.75;2209276;81;21004;-82
2022/11/07 12:03:45;;;;;;;10.80;6.80;;;;;;;12.34;69.37;98876.95;2208821;81;20913;-80
2022/11/07 12:06:46;;;;;;;19.50;7.03;;;;;;;12.30;69.21;98871.69;2207982;81;20975;-81
2022/11/07 12:09:46;;;;;;;13.50;7.25;;;;;;;12.32;67.54;98877.80;2208357;81;20988;-79
2022/11/07 12:12:47;;;;;;;35.30;21.75;;;;;;;12.26;67.83;98873.84;2203845;81;21368;-80
2022/11/07 12:15:47;;;;;;;18.85;9.58;;;;;;;12.20;65.83;98870.77;2203651;80;21031;-81
2022/11/07 12:18:47;;;;;;;13.58;8.13;;;;;;;12.14;66.84;98864.19;2205427;81;21585;-80
2022/11/07 12:21:48;;;;;;;11.20;7.05;;;;;;;12.17;67.00;98864.64;2204265;81;21175;-80
2022/11/07 12:24:48;;;;;;;10.30;6.75;;;;;;;12.18;68.38;98867.69;2203326;81;21091;-82
2022/11/07 12:27:49;;;;;;;11.55;7.95;;;;;;;12.23;67.99;98875.14;2208300;81;21425;-82
2022/11/07 12:30:49;;;;;;;21.12;8.88;;;;;;;12.24;67.20;98871.66;2208247;81;20968;-87
2022/11/07 12:33:49;;;;;;;10.68;7.10;;;;;;;12.26;67.97;98871.23;2207819;81;21135;-81
2022/11/07 12:36:50;;;;;;;11.00;7.17;;;;;;;12.38;66.34;98868.67;2206179;81;20987;-80
2022/11/07 12:39:50;;;;;;;192.87;13.95;;;;;;;12.30;66.78;98865.14;2206913;81;21631;-79
2022/11/07 12:42:51;;;;;;;19.00;7.20;;;;;;;12.25;66.29;98869.05;2208625;81;20999;-79
2022/11/07 12:45:51;;;;;;;9.83;6.62;;;;;;;12.22;65.17;98878.63;2207247;81;21024;-82
2022/11/07 12:48:52;;;;;;;9.20;6.15;;;;;;;12.21;65.70;98888.64;2206782;81;20968;-81
2022/11/07 12:51:52;;;;;;;13.22;7.10;;;;;;;12.16;64.57;98876.84;2209087;81;21011;-82
2022/11/07 12:54:52;;;;;;;15.85;8.73;;;;;;;12.12;65.94;98877.66;2208432;80;21035;-79
2022/11/07 12:57:53;;;;;;;11.70;6.20;;;;;;;12.11;65.54;98879.83;2208262;81;20960;-81
2022/11/07 13:00:53;;;;;;;23.12;8.85;;;;;;;12.10;64.91;98880.27;2208429;81;20972;-80
2022/11/07 13:03:54;;;;;;;17.50;7.15;;;;;;;12.11;65.91;98877.22;2208768;81;20999;-81
2022/11/07 13:06:54;;;;;;;9.10;6.58;;;;;;;12.12;65.22;98882.45;2208235;81;21486;-80
2022/11/07 13:09:54;;;;;;;23.73;7.70;;;;;;;12.15;66.56;98885.99;2204720;81;21031;-78
2022/11/07 13:12:55;;;;;;;25.52;7.40;;;;;;;12.17;67.22;98880.34;2204436;81;21074;-81
2022/11/07 13:15:55;;;;;;;15.50;7.22;;;;;;;12.19;66.72;98883.84;2203534;81;21007;-82
2022/11/07 13:18:56;;;;;;;15.68;7.97;;;;;;;12.20;66.78;98893.44;2206637;81;20999;-80
2022/11/07 13:21:56;;;;;;;16.65;7.97;;;;;;;12.19;66.38;98891.69;2206820;81;21044;-79
2022/11/07 13:24:56;;;;;;;17.77;8.23;;;;;;;12.19;66.54;98888.64;2202517;81;21534;-80
2022/11/07 13:27:57;;;;;;;22.48;8.90;;;;;;;12.17;65.36;98901.27;2202041;81;20991;-79
2022/11/07 13:30:58;;;;;;;15.00;7.83;;;;;;;12.16;65.91;98900.39;2201576;81;21050;-80
2022/11/07 13:33:58;;;;;;;33.15;9.43;;;;;;;12.10;64.91;98888.11;2201886;81;21074;-81
2022/11/07 13:36:58;;;;;;;22.58;9.30;;;;;;;12.07;65.94;98905.10;2202100;81;21509;-80
2022/11/07 13:39:59;;;;;;;12.90;9.08;;;;;;;12.03;66.23;98911.17;2206141;81;21786;-81
2022/11/07 13:42:59;;;;;;;20.23;12.18;;;;;;;11.99;66.28;98916.38;2206019;81;20944;-81
2022/11/07 13:45:59;;;;;;;19.40;13.22;;;;;;;11.96;66.68;98917.23;2207454;81;20999;-82
2022/11/07 13:49:00;;;;;;;18.32;10.98;;;;;;;11.92;66.89;98919.81;2207512;81;21321;-82
2022/11/07 13:52:00;;;;;;;14.90;9.58;;;;;;;11.88;67.64;98923.27;2207023;81;21071;-81
2022/11/07 13:55:01;;;;;;;13.03;8.43;;;;;;;11.80;67.42;98918.85;2215968;80;21039;-81
2022/11/07 13:58:02;;;;;;;17.12;10.03;;;;;;;11.72;67.98;98924.42;2218354;80;20983;-81
2022/11/07 14:01:02;;;;;;;14.53;9.35;;;;;;;11.65;68.29;98925.66;2217804;80;21007;-79
2022/11/07 14:04:02;;;;;;;19.52;11.00;;;;;;;11.62;68.70;98928.25;2217944;80;20940;-81
2022/11/07 14:07:02;;;;;;;15.68;11.35;;;;;;;11.62;68.92;98924.33;2217654;80;21076;-81
2022/11/07 14:10:03;;;;;;;17.15;10.63;;;;;;;11.60;69.30;98932.59;2217877;80;21006;-82